Flight Track Log - Related Links

Times and Time Zones

All times are in EDT time to prevent confusion due to time zone crossing. See the DAL858 flight status page for this flight to view local times or setup timezone preferences in your user account.

Time Position Orientation Groundspeed Altitude Reporting Facility
EDT Latitude Longitude Course Direction KTS MPH feet Rate Location/Type
Sat 04:23:50 PM 44.9500 -93.2333 65° Northeast 200 230 4,100  Level Minneapolis TRACON
Sat 04:24:45 PM 45.0000 -93.1667 43° Northeast 256 295 6,900 2,882 Climbing Minneapolis TRACON
Sat 04:25:00 PM 45.0028 -92.7557 70° East  Level FlightAware Approximate
Sat 04:25:57 PM 45.0561 -93.1000 40° Northeast 264 304 10,200  Level Minneapolis Center
Sat 04:26:00 PM 45.0472 -92.6010 66° East  Level FlightAware Approximate
Sat 04:26:59 PM 45.1028 -92.9975 57° Northeast 327 376 11,900  Level Minneapolis Center
Sat 04:27:00 PM 45.0925 -92.4467 70° East  Level FlightAware Approximate
Sat 04:28:00 PM 45.1271 -92.2887 68° East  Level FlightAware Approximate
Sat 04:28:13 PM 45.1417 -92.7997 74° East 378 435 14,900  Level Minneapolis Center
Sat 04:29:00 PM 45.1720 -92.1339 65° Northeast  Level FlightAware Approximate
Sat 04:29:15 PM 45.1708 -92.6508 74° East 392 451 17,100  Level Minneapolis Center
Sat 04:30:17 PM 45.2008 -92.4997 74° East 397 457 19,100 1,887 Climbing Minneapolis Center
Sat 04:31:19 PM 45.2314 -92.3431 74° East 411 473 21,000 1,742 Climbing Minneapolis Center
Sat 04:32:21 PM 45.2619 -92.1783 75° East 427 491 22,700 1,645 Climbing Minneapolis Center
Sat 04:33:23 PM 45.2914 -92.0106 76° East 438 504 24,400 1,645 Climbing Minneapolis Center
Sat 04:34:25 PM 45.3294 -91.8075 75° East 444 511 26,100 1,279 Climbing Minneapolis Center
Sat 04:35:39 PM 45.3606 -91.6294 76° East 459 528 27,300 1,139 Climbing Minneapolis Center
Sat 04:36:42 PM 45.3989 -91.4133 76° East 469 540 28,700 1,488 Climbing Minneapolis Center
Sat 04:37:44 PM 45.4336 -91.2147 76° East 475 547 30,400 1,500 Climbing Minneapolis Center
Sat 04:38:46 PM 45.4647 -91.0339 76° East 473 544 31,800 1,258 Climbing Minneapolis Center
Sat 04:39:48 PM 45.4958 -90.8531 76° East 472 543 33,000 1,065 Climbing Minneapolis Center
Sat 04:40:50 PM 45.5278 -90.6739 76° East 470 541 34,000 919 Climbing Minneapolis Center
Sat 04:41:52 PM 45.5578 -90.4917 77° East 473 544 34,900 871 Climbing Minneapolis Center
Sat 04:42:54 PM 45.5883 -90.3097 76° East 473 544 35,800 774 Climbing Minneapolis Center
Sat 04:43:56 PM 45.6247 -90.0925 76° East 471 542 36,500 576 Climbing Minneapolis Center
Sat 04:44:59 PM 45.6547 -89.9078 77° East 477 549 37,000 240 Climbing Minneapolis Center
Sat 04:46:01 PM 45.6861 -89.7106 77° East 474 545 37,000  Level Minneapolis Center
Sat 04:47:03 PM 45.7156 -89.5261 77° East 474 545 37,000  Level Minneapolis Center
Sat 04:48:05 PM 45.7456 -89.3408 77° East 476 548 37,000  Level Minneapolis Center
Sat 04:49:07 PM 45.7744 -89.1539 77° East 479 551 37,000  Level Minneapolis Center
Sat 04:50:09 PM 45.8025 -88.9692 78° East 476 548 37,000  Level Minneapolis Center
Sat 04:51:11 PM 45.8317 -88.7736 78° East 478 550 37,000  Level Minneapolis Center
Sat 04:52:13 PM 45.8600 -88.5869 78° East 481 554 37,000  Level Minneapolis Center
Sat 04:53:15 PM 45.8878 -88.4000 78° East 482 555 37,000  Level Minneapolis Center
Sat 04:54:17 PM 45.9208 -88.1750 78° East 481 554 37,000  Level Minneapolis Center
Sat 04:55:19 PM 45.9467 -88.0022 78° East 476 548 37,000  Level Minneapolis Center
Sat 04:56:21 PM 45.9719 -87.8131 79° East 481 554 37,000  Level Minneapolis Center
Sat 04:57:23 PM 45.9992 -87.6233 78° East 484 557 37,000  Level Minneapolis Center
Sat 04:58:25 PM 46.0314 -87.3958 78° East 485 558 37,000  Level Minneapolis Center
Sat 04:59:27 PM 46.0572 -87.2056 79° East 486 559 37,000  Level Minneapolis Center
Sat 05:00:29 PM 46.0833 -87.0150 79° East 485 558 37,000  Level Minneapolis Center
Sat 05:01:32 PM 46.1089 -86.8264 79° East 482 555 37,000  Level Minneapolis Center
Sat 05:02:34 PM 46.1333 -86.6358 79° East 482 555 37,000  Level Minneapolis Center
Sat 05:03:36 PM 46.1583 -86.4472 79° East 480 552 37,000  Level Minneapolis Center
Sat 05:04:38 PM 46.1875 -86.2181 80° East 483 556 37,000  Level Minneapolis Center
Sat 05:05:40 PM 46.2114 -86.0261 80° East 485 558 37,000  Level Minneapolis Center
Sat 05:06:42 PM 46.2353 -85.8347 80° East 485 558 37,000  Level Minneapolis Center
Sat 05:07:44 PM 46.2583 -85.6414 80° East 486 559 37,000  Level Minneapolis Center
Sat 05:08:46 PM 46.2822 -85.4536 80° East 480 552 37,000  Level Minneapolis Center
Sat 05:09:48 PM 46.3017 -85.2625 82° East 479 551 37,000  Level Minneapolis Center
Sat 05:10:50 PM 46.2967 -85.0733 92° East 471 542 37,000  Level Minneapolis Center
Sat 05:11:52 PM 46.2992 -84.8483 89° East 468 539 37,000  Level Minneapolis Center
Sat 05:12:54 PM 46.3019 -84.6583 89° East 469 540 37,000  Level Minneapolis Center
Sat 05:13:56 PM 46.3039 -84.4700 89° East 470 541 37,000  Level Minneapolis Center
Sat 05:14:58 PM 46.3047 -84.2783 90° East 472 543 37,000  Level Minneapolis Center
Sat 05:16:13 PM 46.2833 -84.0000 96° East 480 552 37,000  Level Toronto Center
Sat 05:17:13 PM 46.2833 -83.8000 90° East 480 552 37,000  Level Toronto Center
Sat 05:18:13 PM 46.2833 -83.6167 90° East 480 552 37,000  Level Toronto Center
Sat 05:19:13 PM 46.2667 -83.4167 97° East 480 552 37,000  Level Toronto Center
Sat 05:20:13 PM 46.2833 -83.2333 82° East 480 552 37,000  Level Toronto Center
Sat 05:21:13 PM 46.2667 -83.0333 97° East 490 564 37,000  Level Toronto Center
Sat 05:22:13 PM 46.2667 -82.8333 90° East 490 564 37,000  Level Toronto Center
Sat 05:23:13 PM 46.2667 -82.6500 90° East 490 564 37,000  Level Toronto Center
Sat 05:24:13 PM 46.2500 -82.4500 97° East 490 564 37,000  Level Toronto Center
Sat 05:25:13 PM 46.2500 -82.2667 90° East 480 552 37,000  Level Toronto Center
Sat 05:26:13 PM 46.2333 -82.0667 97° East 480 552 37,000  Level Toronto Center
Sat 05:27:13 PM 46.2500 -81.8667 83° East 480 552 37,000  Level Toronto Center
Sat 05:28:13 PM 46.2333 -81.6833 97° East 480 552 37,000  Level Toronto Center
Sat 05:29:13 PM 46.2333 -81.4833 90° East 480 552 37,000  Level Toronto Center
Sat 05:30:13 PM 46.2167 -81.3000 97° East 480 552 37,000  Level Toronto Center
Sat 05:31:13 PM 46.2000 -81.1000 97° East 480 552 37,000  Level Toronto Center
Sat 05:32:13 PM 46.2000 -80.9167 90° East 480 552 37,000  Level Toronto Center
Sat 05:33:13 PM 46.2000 -80.7167 90° East 480 552 37,000  Level Toronto Center
Sat 05:34:13 PM 46.2000 -80.5167 90° East 490 564 37,000  Level Toronto Center
Sat 05:35:13 PM 46.1833 -80.3333 97° East 480 552 37,000  Level Toronto Center
Sat 05:36:13 PM 46.1667 -80.1333 97° East 480 552 37,000  Level Toronto Center
Sat 05:37:13 PM 46.1667 -79.9500 90° East 480 552 37,000  Level Toronto Center
Sat 05:38:13 PM 46.1500 -79.7500 97° East 480 552 37,000  Level Toronto Center
Sat 05:39:13 PM 46.1500 -79.5667 90° East 480 552 37,000  Level Toronto Center
Sat 05:40:13 PM 46.1333 -79.3667 97° East 480 552 37,000  Level Toronto Center
Sat 05:41:13 PM 46.1333 -79.1667 90° East 480 552 37,000  Level Toronto Center
Sat 05:42:13 PM 46.1167 -78.9833 97° East 480 552 37,000  Level Toronto Center
Sat 05:43:13 PM 46.1000 -78.7833 97° East 480 552 37,000  Level Toronto Center
Sat 05:44:13 PM 46.1000 -78.6000 90° East 480 552 37,000  Level Toronto Center
Sat 05:45:13 PM 46.0667 -78.4000 103° East 480 552 37,000  Level Toronto Center
Sat 05:46:13 PM 46.0667 -78.2167 90° East 480 552 37,000  Level Toronto Center
Sat 05:47:13 PM 46.0500 -78.0500 98° East 480 552 37,000  Level Toronto Center
Sat 05:48:13 PM 46.0333 -77.8333 96° East 490 564 37,000  Level Toronto Center
Sat 05:49:13 PM 46.0333 -77.6333 90° East 490 564 37,000  Level Toronto Center
Sat 05:50:13 PM 46.0167 -77.4500 97° East 490 564 37,000  Level Toronto Center
Sat 05:51:13 PM 46.0000 -77.2500 97° East 480 552 37,000  Level Toronto Center
Sat 05:52:13 PM 45.9833 -77.0667 97° East 490 564 37,000  Level Toronto Center
Sat 05:53:13 PM 45.9833 -76.8500 90° East 490 564 37,000  Level Toronto Center
Sat 05:54:13 PM 45.9667 -76.6833 98° East 490 564 37,000  Level Toronto Center
Sat 05:55:13 PM 45.9333 -76.4833 103° East 490 564 37,000  Level Toronto Center
Sat 05:56:13 PM 45.9333 -76.2833 90° East 490 564 37,000  Level Toronto Center
Sat 05:57:13 PM 45.9167 -76.0833 97° East 490 564 37,000  Level Toronto Center
Sat 05:58:13 PM 45.9000 -75.9000 97° East 490 564 37,000  Level Toronto Center
Sat 05:59:13 PM 45.8667 -75.7000 103° East 480 552 37,000  Level Toronto Center
Sat 06:00:13 PM 45.8000 -75.5500 122° Southeast 470 541 37,000  Level Toronto Center
Sat 06:01:13 PM 45.7167 -75.4000 128° Southeast 470 541 37,000  Level Toronto Center
Sat 06:02:09 PM 45.6500 -75.2667 126° Southeast 460 529 37,000  Level Montreal Center
Sat 06:03:09 PM 45.5833 -75.1333 126° Southeast 460 529 37,000 200 Level Montreal Center
Sat 06:04:09 PM 45.5167 -74.9667 120° Southeast 460 529 37,400 650 Climbing Montreal Center
Sat 06:05:09 PM 45.4500 -74.8167 122° Southeast 460 529 38,300 800 Climbing Montreal Center
Sat 06:06:09 PM 45.3833 -74.6500 120° Southeast 460 529 39,000 350 Climbing Montreal Center
Sat 06:07:09 PM 45.3167 -74.5167 125° Southeast 460 529 39,000  Level Montreal Center
Sat 06:08:09 PM 45.2500 -74.3500 120° Southeast 460 529 39,000  Level Montreal Center
Sat 06:09:09 PM 45.1833 -74.2167 125° Southeast 470 541 39,000  Level Montreal Center
Sat 06:10:09 PM 45.1000 -74.0500 125° Southeast 460 529 39,000 556 Level Montreal Center
Sat 06:10:57 PM 45.6167 -68.6333 80° East 400 460 40,000  Climbing Montreal Center
Sat 06:11:48 PM 45.0053 -73.8169 262° West 460 529 39,000 -550 Descending Boston Center
Sat 06:12:46 PM 44.9339 -73.6656 124° Southeast 460 529 39,000  Level Boston Center
Sat 06:13:47 PM 44.8625 -73.5119 123° Southeast 460 529 39,000  Level Boston Center
Sat 06:14:47 PM 44.7889 -73.3614 125° Southeast 470 541 39,000  Level Boston Center
Sat 06:15:48 PM 44.7172 -73.2025 122° Southeast 475 547 39,000  Level Boston Center
Sat 06:16:48 PM 44.6472 -73.0497 123° Southeast 475 547 39,000  Level Boston Center
Sat 06:17:46 PM 44.5708 -72.8947 125° Southeast 481 554 39,000  Level Boston Center
Sat 06:18:47 PM 44.4964 -72.7456 125° Southeast 475 547 39,000 -99 Level Boston Center
Sat 06:19:47 PM 44.4300 -72.6086 124° Southeast 475 547 38,800 -645 Descending Boston Center
Sat 06:20:48 PM 44.3572 -72.4633 125° Southeast 469 540 37,700 -1,082 Descending Boston Center
Sat 06:21:49 PM 44.2822 -72.3094 124° Southeast 480 552 36,600 -864 Descending Boston Center
Sat 06:22:46 PM 44.2089 -72.1619 125° Southeast 480 552 36,000 -718 Descending Boston Center
Sat 06:23:46 PM 44.1375 -72.0092 123° Southeast 474 545 35,200 -1,884 Descending Boston Center
Sat 06:24:47 PM 44.0578 -71.8567 126° Southeast 474 545 32,200 -2,777 Descending Boston Center
Sat 06:25:47 PM 43.9819 -71.7044 125° Southeast 480 552 29,600 -2,826 Descending Boston Center
Sat 06:26:48 PM 43.9078 -71.5525 124° Southeast 480 552 26,500 -2,678 Descending Boston Center
Sat 06:27:48 PM 43.8231 -71.3897 126° Southeast 480 552 24,200 -1,169 Descending Boston Center
Sat 06:28:46 PM 43.7467 -71.2417 126° Southeast 475 547 24,200 -763 Level Boston Center
Sat 06:29:46 PM 43.6719 -71.0939 125° Southeast 475 547 22,700 -1,350 Descending Boston Center
Sat 06:30:46 PM 43.6058 -70.9519 123° Southeast 462 532 21,500 -1,574 Descending Boston Center
Sat 06:31:48 PM 43.5394 -70.8247 126° Southeast 433 498 19,500 -2,000 Descending Boston Center
Sat 06:32:46 PM 43.4708 -70.7036 128° Southeast 407 468 17,500 -2,017 Descending Boston Center
Sat 06:33:47 PM 43.4050 -70.6111 134° Southeast 385 443 15,500 -2,083 Descending Boston Center
Sat 06:34:47 PM 43.3122 -70.5597 158° South 366 421 13,300 -2,218 Descending Boston Center
Sat 06:35:46 PM 43.2053 -70.5117 162° South 361 415 11,100 -1,160 Descending Boston Center
Sat 06:36:46 PM 43.1253 -70.4744 161° South 361 415 11,000 -50 Descending Boston Center
Sat 06:37:47 PM 43.0225 -70.4264 161° South 356 410 11,000  Level Boston Center
Sat 06:38:47 PM 42.9383 -70.3894 162° South 356 410 11,000  Level Boston Center
Sat 06:39:48 PM 42.8394 -70.3392 160° South 350 403 11,000  Level Boston Center
Sat 06:40:48 PM 42.7492 -70.2997 162° South 350 403 11,000  Level Boston Center
Sat 06:41:46 PM 42.6733 -70.2628 160° South 325 374 11,000 -305 Level Boston Center
Sat 06:42:46 PM 42.5983 -70.2625 180° South 276 318 10,400 -1,537 Descending Boston Center
Sat 06:43:47 PM 42.5433 -70.3294 222° Southwest 252 290 7,900 -2,479 Descending Boston Center
Sat 06:44:47 PM 42.4883 -70.4044 225° Southwest 264 304 5,400 -1,587 Descending Boston Center
Sat 06:45:48 PM 42.4500 -70.4761 234° Southwest 261 300 4,700 -706 Descending Boston Center
Sat 06:46:46 PM 42.4369 -70.5581 258° West 235 270 4,000 -237 Descending Boston Center
Sat 06:48:20 PM 42.4167 -70.6833 258° West 216 249 4,100 -273 Climbing KA90
Sat 06:49:20 PM 42.4000 -70.7500 251° West 217 250 3,300 -950 Descending KA90
Sat 06:50:20 PM 42.3833 -70.8333 255° West 208 239 2,200 -1,000 Descending KA90
Sat 06:51:20 PM 42.3833 -70.9000 270° West 182 209 1,300 -800 Descending KA90
Sat 06:52:20 PM 42.3667 -70.9500 246° West 125 144 600 -700 Descending KA90

Login

Don't have an account? Register now (free) for customized features, flight alerts, and more!